sensor_id;sensor_type;location;lat;lon;timestamp;temperature;humidity
15355;DHT22;7777;52.254;9.618;2023-09-19T00:01:08;17.30;99.90
15355;DHT22;7777;52.254;9.618;2023-09-19T00:03:34;17.30;99.90
15355;DHT22;7777;52.254;9.618;2023-09-19T00:06:04;17.30;99.90
15355;DHT22;7777;52.254;9.618;2023-09-19T00:08:32;17.30;99.90
15355;DHT22;7777;52.254;9.618;2023-09-19T00:10:58;17.30;99.90
15355;DHT22;7777;52.254;9.618;2023-09-19T00:13:31;17.30;99.90
15355;DHT22;7777;52.254;9.618;2023-09-19T00:15:57;17.30;99.90
15355;DHT22;7777;52.254;9.618;2023-09-19T00:18:27;17.30;99.90
15355;DHT22;7777;52.254;9.618;2023-09-19T00:20:58;17.30;99.90
15355;DHT22;7777;52.254;9.618;2023-09-19T00:23:24;17.30;99.90
15355;DHT22;7777;52.254;9.618;2023-09-19T00:25:50;17.30;99.90
15355;DHT22;7777;52.254;9.618;2023-09-19T00:28:17;17.40;99.90
15355;DHT22;7777;52.254;9.618;2023-09-19T00:30:44;17.40;99.90
15355;DHT22;7777;52.254;9.618;2023-09-19T00:33:11;17.40;99.90
15355;DHT22;7777;52.254;9.618;2023-09-19T00:35:50;17.40;99.90
15355;DHT22;7777;52.254;9.618;2023-09-19T00:38:17;17.40;99.90
15355;DHT22;7777;52.254;9.618;2023-09-19T00:40:48;17.40;99.90
15355;DHT22;7777;52.254;9.618;2023-09-19T00:43:17;17.30;99.90
15355;DHT22;7777;52.254;9.618;2023-09-19T00:45:45;17.40;99.90
15355;DHT22;7777;52.254;9.618;2023-09-19T00:48:15;17.40;99.90
15355;DHT22;7777;52.254;9.618;2023-09-19T00:50:42;17.40;99.90
15355;DHT22;7777;52.254;9.618;2023-09-19T00:53:09;17.30;99.90
15355;DHT22;7777;52.254;9.618;2023-09-19T00:55:39;17.30;99.90
15355;DHT22;7777;52.254;9.618;2023-09-19T00:58:10;17.40;99.90
15355;DHT22;7777;52.254;9.618;2023-09-19T01:00:37;17.40;99.90
15355;DHT22;7777;52.254;9.618;2023-09-19T01:03:04;17.40;99.90
15355;DHT22;7777;52.254;9.618;2023-09-19T01:05:33;17.40;99.90
15355;DHT22;7777;52.254;9.618;2023-09-19T01:07:59;17.40;99.90
15355;DHT22;7777;52.254;9.618;2023-09-19T01:10:25;17.30;99.90
15355;DHT22;7777;52.254;9.618;2023-09-19T01:15:51;17.30;99.90
15355;DHT22;7777;52.254;9.618;2023-09-19T01:21:23;17.40;99.90
15355;DHT22;7777;52.254;9.618;2023-09-19T01:30:27;17.40;99.90
15355;DHT22;7777;52.254;9.618;2023-09-19T01:32:59;17.30;99.90
15355;DHT22;7777;52.254;9.618;2023-09-19T01:35:25;17.40;99.90
15355;DHT22;7777;52.254;9.618;2023-09-19T01:37:51;17.40;99.90
15355;DHT22;7777;52.254;9.618;2023-09-19T01:40:20;17.40;99.90
15355;DHT22;7777;52.254;9.618;2023-09-19T01:42:59;17.40;99.90
15355;DHT22;7777;52.254;9.618;2023-09-19T01:52:10;17.40;99.90
15355;DHT22;7777;52.254;9.618;2023-09-19T01:54:52;17.40;99.90
15355;DHT22;7777;52.254;9.618;2023-09-19T01:57:27;17.40;99.90
15355;DHT22;7777;52.254;9.618;2023-09-19T02:00:06;17.40;99.90
15355;DHT22;7777;52.254;9.618;2023-09-19T02:02:38;17.40;99.90
15355;DHT22;7777;52.254;9.618;2023-09-19T02:05:05;17.40;99.90
15355;DHT22;7777;52.254;9.618;2023-09-19T02:07:31;17.50;99.90
15355;DHT22;7777;52.254;9.618;2023-09-19T02:09:58;17.50;99.90
15355;DHT22;7777;52.254;9.618;2023-09-19T02:12:28;17.50;99.90
15355;DHT22;7777;52.254;9.618;2023-09-19T02:14:56;17.50;99.90
15355;DHT22;7777;52.254;9.618;2023-09-19T02:17:23;17.50;99.90
15355;DHT22;7777;52.254;9.618;2023-09-19T02:19:52;17.50;99.90
15355;DHT22;7777;52.254;9.618;2023-09-19T02:22:22;17.40;99.90
15355;DHT22;7777;52.254;9.618;2023-09-19T02:24:48;17.50;99.90
15355;DHT22;7777;52.254;9.618;2023-09-19T02:27:14;17.40;99.90
15355;DHT22;7777;52.254;9.618;2023-09-19T02:29:42;17.40;99.90
15355;DHT22;7777;52.254;9.618;2023-09-19T02:32:07;17.40;99.90
15355;DHT22;7777;52.254;9.618;2023-09-19T02:34:35;17.40;99.90
15355;DHT22;7777;52.254;9.618;2023-09-19T02:37:03;17.30;99.90
15355;DHT22;7777;52.254;9.618;2023-09-19T02:39:31;17.30;99.90
15355;DHT22;7777;52.254;9.618;2023-09-19T02:41:57;17.30;99.90
15355;DHT22;7777;52.254;9.618;2023-09-19T02:44:23;17.30;99.90
15355;DHT22;7777;52.254;9.618;2023-09-19T02:46:49;17.20;99.90
15355;DHT22;7777;52.254;9.618;2023-09-19T02:49:16;17.20;99.90
15355;DHT22;7777;52.254;9.618;2023-09-19T02:51:43;17.20;99.90
15355;DHT22;7777;52.254;9.618;2023-09-19T02:54:09;17.20;99.90
15355;DHT22;7777;52.254;9.618;2023-09-19T02:56:36;17.20;99.90
15355;DHT22;7777;52.254;9.618;2023-09-19T02:59:02;17.10;99.90
15355;DHT22;7777;52.254;9.618;2023-09-19T03:01:28;17.10;99.90
15355;DHT22;7777;52.254;9.618;2023-09-19T03:03:57;17.10;99.90
15355;DHT22;7777;52.254;9.618;2023-09-19T03:06:23;17.10;99.90
15355;DHT22;7777;52.254;9.618;2023-09-19T03:08:49;17.10;99.90
15355;DHT22;7777;52.254;9.618;2023-09-19T03:11:17;17.10;99.90
15355;DHT22;7777;52.254;9.618;2023-09-19T03:13:51;17.10;99.90
15355;DHT22;7777;52.254;9.618;2023-09-19T03:16:18;17.10;99.90
15355;DHT22;7777;52.254;9.618;2023-09-19T03:18:44;17.10;99.90
15355;DHT22;7777;52.254;9.618;2023-09-19T03:21:10;17.10;99.90
15355;DHT22;7777;52.254;9.618;2023-09-19T03:23:36;17.10;99.90
15355;DHT22;7777;52.254;9.618;2023-09-19T03:26:04;17.10;99.90
15355;DHT22;7777;52.254;9.618;2023-09-19T03:28:33;17.00;99.90
15355;DHT22;7777;52.254;9.618;2023-09-19T03:31:03;17.10;99.90
15355;DHT22;7777;52.254;9.618;2023-09-19T03:33:30;17.00;99.90
15355;DHT22;7777;52.254;9.618;2023-09-19T03:36:00;17.00;99.90
15355;DHT22;7777;52.254;9.618;2023-09-19T03:38:30;17.00;99.90
15355;DHT22;7777;52.254;9.618;2023-09-19T03:40:57;17.00;99.90
15355;DHT22;7777;52.254;9.618;2023-09-19T03:43:23;17.00;99.90
15355;DHT22;7777;52.254;9.618;2023-09-19T03:45:49;17.00;99.90
15355;DHT22;7777;52.254;9.618;2023-09-19T03:48:16;17.00;99.90
15355;DHT22;7777;52.254;9.618;2023-09-19T03:50:42;17.00;99.90
15355;DHT22;7777;52.254;9.618;2023-09-19T03:53:09;17.00;99.90
15355;DHT22;7777;52.254;9.618;2023-09-19T03:55:35;16.90;99.90
15355;DHT22;7777;52.254;9.618;2023-09-19T03:58:01;17.00;99.90
15355;DHT22;7777;52.254;9.618;2023-09-19T04:00:27;16.90;99.90
15355;DHT22;7777;52.254;9.618;2023-09-19T04:02:55;16.90;99.90
15355;DHT22;7777;52.254;9.618;2023-09-19T04:05:22;16.90;99.90
15355;DHT22;7777;52.254;9.618;2023-09-19T04:07:49;16.90;99.90
15355;DHT22;7777;52.254;9.618;2023-09-19T04:10:15;16.90;99.90
15355;DHT22;7777;52.254;9.618;2023-09-19T04:12:53;16.90;99.90
15355;DHT22;7777;52.254;9.618;2023-09-19T04:15:20;16.90;99.90
15355;DHT22;7777;52.254;9.618;2023-09-19T04:17:48;16.90;99.90
15355;DHT22;7777;52.254;9.618;2023-09-19T04:20:14;16.90;99.90
15355;DHT22;7777;52.254;9.618;2023-09-19T04:22:41;16.90;99.90
15355;DHT22;7777;52.254;9.618;2023-09-19T04:25:07;16.90;99.90
15355;DHT22;7777;52.254;9.618;2023-09-19T04:27:33;16.90;99.90
15355;DHT22;7777;52.254;9.618;2023-09-19T04:29:59;16.90;99.90
15355;DHT22;7777;52.254;9.618;2023-09-19T04:32:34;16.80;99.90
15355;DHT22;7777;52.254;9.618;2023-09-19T04:35:01;16.80;99.90
15355;DHT22;7777;52.254;9.618;2023-09-19T04:37:31;16.80;99.90
15355;DHT22;7777;52.254;9.618;2023-09-19T04:39:57;16.80;99.90
15355;DHT22;7777;52.254;9.618;2023-09-19T04:42:22;16.80;99.90
15355;DHT22;7777;52.254;9.618;2023-09-19T04:44:50;16.80;99.90
15355;DHT22;7777;52.254;9.618;2023-09-19T04:47:19;16.80;99.90
15355;DHT22;7777;52.254;9.618;2023-09-19T04:49:44;16.80;99.90
15355;DHT22;7777;52.254;9.618;2023-09-19T04:52:10;16.80;99.90
15355;DHT22;7777;52.254;9.618;2023-09-19T04:54:36;16.70;99.90
15355;DHT22;7777;52.254;9.618;2023-09-19T04:57:02;16.80;99.90
15355;DHT22;7777;52.254;9.618;2023-09-19T04:59:27;16.70;99.90
15355;DHT22;7777;52.254;9.618;2023-09-19T05:01:53;16.70;99.90
15355;DHT22;7777;52.254;9.618;2023-09-19T05:04:19;16.70;99.90
15355;DHT22;7777;52.254;9.618;2023-09-19T05:06:45;16.70;99.90
15355;DHT22;7777;52.254;9.618;2023-09-19T05:09:10;16.60;99.90
15355;DHT22;7777;52.254;9.618;2023-09-19T05:11:36;16.60;99.90
15355;DHT22;7777;52.254;9.618;2023-09-19T05:14:03;16.60;99.90
15355;DHT22;7777;52.254;9.618;2023-09-19T05:16:30;16.50;99.90
15355;DHT22;7777;52.254;9.618;2023-09-19T05:18:59;16.50;99.90
15355;DHT22;7777;52.254;9.618;2023-09-19T05:21:26;16.50;99.70
15355;DHT22;7777;52.254;9.618;2023-09-19T05:23:54;16.50;99.80
15355;DHT22;7777;52.254;9.618;2023-09-19T05:26:20;16.50;99.90
15355;DHT22;7777;52.254;9.618;2023-09-19T05:28:46;16.50;99.80
15355;DHT22;7777;52.254;9.618;2023-09-19T05:31:13;16.50;99.80
15355;DHT22;7777;52.254;9.618;2023-09-19T05:33:40;16.40;99.70
15355;DHT22;7777;52.254;9.618;2023-09-19T05:36:06;16.40;99.70
15355;DHT22;7777;52.254;9.618;2023-09-19T05:38:35;16.40;99.70
15355;DHT22;7777;52.254;9.618;2023-09-19T05:41:00;16.40;99.60
15355;DHT22;7777;52.254;9.618;2023-09-19T05:43:27;16.40;99.60
15355;DHT22;7777;52.254;9.618;2023-09-19T05:45:53;16.30;99.50
15355;DHT22;7777;52.254;9.618;2023-09-19T05:48:22;16.30;99.50
15355;DHT22;7777;52.254;9.618;2023-09-19T05:50:47;16.30;99.50
15355;DHT22;7777;52.254;9.618;2023-09-19T05:53:14;16.30;99.50
15355;DHT22;7777;52.254;9.618;2023-09-19T05:55:40;16.20;99.40
15355;DHT22;7777;52.254;9.618;2023-09-19T05:58:07;16.20;99.50
15355;DHT22;7777;52.254;9.618;2023-09-19T06:00:34;16.20;99.50
15355;DHT22;7777;52.254;9.618;2023-09-19T06:02:59;16.20;99.50
15355;DHT22;7777;52.254;9.618;2023-09-19T06:05:26;16.20;99.50
15355;DHT22;7777;52.254;9.618;2023-09-19T06:07:53;16.20;99.50
15355;DHT22;7777;52.254;9.618;2023-09-19T06:10:19;16.20;99.50
15355;DHT22;7777;52.254;9.618;2023-09-19T06:12:48;16.20;99.50
15355;DHT22;7777;52.254;9.618;2023-09-19T06:15:15;16.20;99.50
15355;DHT22;7777;52.254;9.618;2023-09-19T06:17:53;16.20;99.40
15355;DHT22;7777;52.254;9.618;2023-09-19T06:20:23;16.10;99.10
15355;DHT22;7777;52.254;9.618;2023-09-19T06:22:50;16.10;99.20
15355;DHT22;7777;52.254;9.618;2023-09-19T06:25:17;16.10;99.20
15355;DHT22;7777;52.254;9.618;2023-09-19T06:27:50;16.10;99.30
15355;DHT22;7777;52.254;9.618;2023-09-19T06:30:22;16.20;99.30
15355;DHT22;7777;52.254;9.618;2023-09-19T06:32:58;16.10;99.30
15355;DHT22;7777;52.254;9.618;2023-09-19T06:35:25;16.10;99.30
15355;DHT22;7777;52.254;9.618;2023-09-19T06:37:54;16.10;99.10
15355;DHT22;7777;52.254;9.618;2023-09-19T06:40:23;16.10;99.30
15355;DHT22;7777;52.254;9.618;2023-09-19T06:42:51;16.20;99.30
15355;DHT22;7777;52.254;9.618;2023-09-19T06:45:18;16.10;99.20
15355;DHT22;7777;52.254;9.618;2023-09-19T06:47:51;16.10;99.30
15355;DHT22;7777;52.254;9.618;2023-09-19T06:50:18;16.20;99.30
15355;DHT22;7777;52.254;9.618;2023-09-19T06:52:47;16.20;99.30
15355;DHT22;7777;52.254;9.618;2023-09-19T06:55:15;16.20;99.30
15355;DHT22;7777;52.254;9.618;2023-09-19T06:57:42;16.20;99.30
15355;DHT22;7777;52.254;9.618;2023-09-19T07:00:12;16.20;99.30
15355;DHT22;7777;52.254;9.618;2023-09-19T07:02:45;16.20;99.60
15355;DHT22;7777;52.254;9.618;2023-09-19T07:05:10;16.20;99.30
15355;DHT22;7777;52.254;9.618;2023-09-19T07:07:36;16.20;99.30
15355;DHT22;7777;52.254;9.618;2023-09-19T07:10:03;16.20;99.30
15355;DHT22;7777;52.254;9.618;2023-09-19T07:12:32;16.20;99.10
15355;DHT22;7777;52.254;9.618;2023-09-19T07:15:00;16.20;99.20
15355;DHT22;7777;52.254;9.618;2023-09-19T07:17:26;16.20;99.10
15355;DHT22;7777;52.254;9.618;2023-09-19T07:19:53;16.20;99.00
15355;DHT22;7777;52.254;9.618;2023-09-19T07:22:18;16.20;99.10
15355;DHT22;7777;52.254;9.618;2023-09-19T07:24:44;16.30;99.20
15355;DHT22;7777;52.254;9.618;2023-09-19T07:27:10;16.30;99.30
15355;DHT22;7777;52.254;9.618;2023-09-19T07:29:35;16.30;99.20
15355;DHT22;7777;52.254;9.618;2023-09-19T07:32:01;16.30;99.10
15355;DHT22;7777;52.254;9.618;2023-09-19T07:34:27;16.30;99.20
15355;DHT22;7777;52.254;9.618;2023-09-19T07:36:52;16.30;99.10
15355;DHT22;7777;52.254;9.618;2023-09-19T07:39:18;16.30;99.10
15355;DHT22;7777;52.254;9.618;2023-09-19T07:41:44;16.40;99.10
15355;DHT22;7777;52.254;9.618;2023-09-19T07:44:09;16.40;99.10
15355;DHT22;7777;52.254;9.618;2023-09-19T07:46:35;16.40;99.00
15355;DHT22;7777;52.254;9.618;2023-09-19T07:49:01;16.40;98.90
15355;DHT22;7777;52.254;9.618;2023-09-19T07:51:27;16.40;98.90
15355;DHT22;7777;52.254;9.618;2023-09-19T07:53:53;16.40;99.00
15355;DHT22;7777;52.254;9.618;2023-09-19T07:56:20;16.50;99.00
15355;DHT22;7777;52.254;9.618;2023-09-19T07:58:47;16.50;99.10
15355;DHT22;7777;52.254;9.618;2023-09-19T08:01:13;16.50;98.90
15355;DHT22;7777;52.254;9.618;2023-09-19T08:03:40;16.50;98.70
15355;DHT22;7777;52.254;9.618;2023-09-19T08:06:07;16.50;98.50
15355;DHT22;7777;52.254;9.618;2023-09-19T08:08:34;16.50;98.30
15355;DHT22;7777;52.254;9.618;2023-09-19T08:11:04;16.50;98.50
15355;DHT22;7777;52.254;9.618;2023-09-19T08:13:38;16.50;98.30
15355;DHT22;7777;52.254;9.618;2023-09-19T08:16:12;16.50;98.50
15355;DHT22;7777;52.254;9.618;2023-09-19T08:18:40;16.50;98.40
15355;DHT22;7777;52.254;9.618;2023-09-19T08:21:07;16.50;98.40
15355;DHT22;7777;52.254;9.618;2023-09-19T08:23:37;16.50;98.60
15355;DHT22;7777;52.254;9.618;2023-09-19T08:26:06;16.50;98.50
15355;DHT22;7777;52.254;9.618;2023-09-19T08:28:34;16.60;98.50
15355;DHT22;7777;52.254;9.618;2023-09-19T08:31:04;16.60;98.70
15355;DHT22;7777;52.254;9.618;2023-09-19T08:33:35;16.60;98.50
15355;DHT22;7777;52.254;9.618;2023-09-19T08:36:01;16.60;98.70
15355;DHT22;7777;52.254;9.618;2023-09-19T08:38:32;16.70;98.70
15355;DHT22;7777;52.254;9.618;2023-09-19T08:41:06;16.70;98.30
15355;DHT22;7777;52.254;9.618;2023-09-19T08:43:33;16.70;98.30
15355;DHT22;7777;52.254;9.618;2023-09-19T08:48:32;16.80;98.10
15355;DHT22;7777;52.254;9.618;2023-09-19T08:51:26;16.80;98.40
15355;DHT22;7777;52.254;9.618;2023-09-19T08:54:03;16.90;98.70
15355;DHT22;7777;52.254;9.618;2023-09-19T08:56:33;16.90;98.80
15355;DHT22;7777;52.254;9.618;2023-09-19T08:59:06;17.00;98.90
15355;DHT22;7777;52.254;9.618;2023-09-19T09:01:35;17.00;98.80
15355;DHT22;7777;52.254;9.618;2023-09-19T09:04:02;17.10;98.90
15355;DHT22;7777;52.254;9.618;2023-09-19T09:06:29;17.10;98.70
15355;DHT22;7777;52.254;9.618;2023-09-19T09:08:55;17.10;98.50
15355;DHT22;7777;52.254;9.618;2023-09-19T09:11:22;17.10;98.60
15355;DHT22;7777;52.254;9.618;2023-09-19T09:13:50;17.20;98.50
15355;DHT22;7777;52.254;9.618;2023-09-19T09:16:16;17.20;98.70
15355;DHT22;7777;52.254;9.618;2023-09-19T09:18:45;17.20;98.60
15355;DHT22;7777;52.254;9.618;2023-09-19T09:21:12;17.30;98.70
15355;DHT22;7777;52.254;9.618;2023-09-19T09:23:41;17.30;98.60
15355;DHT22;7777;52.254;9.618;2023-09-19T09:26:06;17.30;98.80
15355;DHT22;7777;52.254;9.618;2023-09-19T09:28:35;17.40;98.70
15355;DHT22;7777;52.254;9.618;2023-09-19T09:31:02;17.40;98.90
15355;DHT22;7777;52.254;9.618;2023-09-19T09:33:33;17.40;98.50
15355;DHT22;7777;52.254;9.618;2023-09-19T09:36:01;17.50;98.50
15355;DHT22;7777;52.254;9.618;2023-09-19T09:38:48;17.50;98.00
15355;DHT22;7777;52.254;9.618;2023-09-19T09:41:16;17.50;98.20
15355;DHT22;7777;52.254;9.618;2023-09-19T09:43:52;17.50;98.10
15355;DHT22;7777;52.254;9.618;2023-09-19T09:46:20;17.50;97.90
15355;DHT22;7777;52.254;9.618;2023-09-19T09:51:38;17.50;98.10
15355;DHT22;7777;52.254;9.618;2023-09-19T09:54:12;17.50;97.90
15355;DHT22;7777;52.254;9.618;2023-09-19T09:56:59;17.60;98.10
15355;DHT22;7777;52.254;9.618;2023-09-19T10:02:25;17.60;98.10
15355;DHT22;7777;52.254;9.618;2023-09-19T10:05:14;17.70;98.00
15355;DHT22;7777;52.254;9.618;2023-09-19T10:07:46;17.70;98.00
15355;DHT22;7777;52.254;9.618;2023-09-19T10:13:10;17.80;98.30
15355;DHT22;7777;52.254;9.618;2023-09-19T10:15:44;17.80;97.70
15355;DHT22;7777;52.254;9.618;2023-09-19T10:18:26;17.80;98.30
15355;DHT22;7777;52.254;9.618;2023-09-19T10:20:56;17.90;98.30
15355;DHT22;7777;52.254;9.618;2023-09-19T10:23:22;17.90;98.20
15355;DHT22;7777;52.254;9.618;2023-09-19T10:25:53;17.90;98.00
15355;DHT22;7777;52.254;9.618;2023-09-19T10:28:20;18.00;98.30
15355;DHT22;7777;52.254;9.618;2023-09-19T10:30:53;18.10;98.50
15355;DHT22;7777;52.254;9.618;2023-09-19T10:33:21;18.10;98.20
15355;DHT22;7777;52.254;9.618;2023-09-19T10:35:53;18.10;97.60
15355;DHT22;7777;52.254;9.618;2023-09-19T10:38:26;18.10;97.50
15355;DHT22;7777;52.254;9.618;2023-09-19T10:40:56;18.10;97.20
15355;DHT22;7777;52.254;9.618;2023-09-19T10:43:32;18.10;97.20
15355;DHT22;7777;52.254;9.618;2023-09-19T10:46:03;18.10;97.20
15355;DHT22;7777;52.254;9.618;2023-09-19T10:48:32;18.20;96.80
15355;DHT22;7777;52.254;9.618;2023-09-19T10:51:18;18.20;97.10
15355;DHT22;7777;52.254;9.618;2023-09-19T10:56:25;18.20;97.10
15355;DHT22;7777;52.254;9.618;2023-09-19T10:59:08;18.30;97.40
15355;DHT22;7777;52.254;9.618;2023-09-19T11:01:49;18.30;97.50
15355;DHT22;7777;52.254;9.618;2023-09-19T11:07:07;18.40;97.30
15355;DHT22;7777;52.254;9.618;2023-09-19T11:26:48;18.70;97.10
15355;DHT22;7777;52.254;9.618;2023-09-19T11:29:29;18.80;97.10
15355;DHT22;7777;52.254;9.618;2023-09-19T11:31:57;18.80;96.70
15355;DHT22;7777;52.254;9.618;2023-09-19T11:39:37;18.90;96.90
15355;DHT22;7777;52.254;9.618;2023-09-19T11:42:40;18.90;96.90
15355;DHT22;7777;52.254;9.618;2023-09-19T11:45:07;19.00;96.20
15355;DHT22;7777;52.254;9.618;2023-09-19T11:47:33;19.00;96.90
15355;DHT22;7777;52.254;9.618;2023-09-19T11:50:01;19.00;97.00
15355;DHT22;7777;52.254;9.618;2023-09-19T11:52:28;19.10;97.00
15355;DHT22;7777;52.254;9.618;2023-09-19T11:55:01;19.10;96.70
15355;DHT22;7777;52.254;9.618;2023-09-19T11:57:29;19.10;96.90
15355;DHT22;7777;52.254;9.618;2023-09-19T11:59:55;19.20;97.10
15355;DHT22;7777;52.254;9.618;2023-09-19T12:02:45;19.20;96.90
15355;DHT22;7777;52.254;9.618;2023-09-19T12:05:12;19.30;97.10
15355;DHT22;7777;52.254;9.618;2023-09-19T12:07:44;19.30;97.10
15355;DHT22;7777;52.254;9.618;2023-09-19T12:10:14;19.40;96.90
15355;DHT22;7777;52.254;9.618;2023-09-19T12:12:47;19.40;96.50
15355;DHT22;7777;52.254;9.618;2023-09-19T12:15:28;19.40;96.20
15355;DHT22;7777;52.254;9.618;2023-09-19T12:17:59;19.40;96.00
15355;DHT22;7777;52.254;9.618;2023-09-19T12:20:40;19.40;96.00
15355;DHT22;7777;52.254;9.618;2023-09-19T12:23:15;19.30;96.00
15355;DHT22;7777;52.254;9.618;2023-09-19T12:25:44;19.30;96.20
15355;DHT22;7777;52.254;9.618;2023-09-19T12:28:17;19.40;96.40
15355;DHT22;7777;52.254;9.618;2023-09-19T12:30:43;19.40;96.70
15355;DHT22;7777;52.254;9.618;2023-09-19T12:33:19;19.40;95.90
15355;DHT22;7777;52.254;9.618;2023-09-19T12:35:46;19.40;96.50
15355;DHT22;7777;52.254;9.618;2023-09-19T12:38:26;19.40;95.80
15355;DHT22;7777;52.254;9.618;2023-09-19T12:41:01;19.40;96.00
15355;DHT22;7777;52.254;9.618;2023-09-19T12:43:30;19.40;95.60
15355;DHT22;7777;52.254;9.618;2023-09-19T12:45:58;19.30;95.90
15355;DHT22;7777;52.254;9.618;2023-09-19T12:48:26;19.30;95.80
15355;DHT22;7777;52.254;9.618;2023-09-19T12:51:01;19.40;96.10
15355;DHT22;7777;52.254;9.618;2023-09-19T12:53:33;19.30;95.80
15355;DHT22;7777;52.254;9.618;2023-09-19T12:56:03;19.40;96.00
15355;DHT22;7777;52.254;9.618;2023-09-19T12:58:34;19.40;96.20
15355;DHT22;7777;52.254;9.618;2023-09-19T13:01:01;19.50;96.40
15355;DHT22;7777;52.254;9.618;2023-09-19T13:03:30;19.50;96.20
15355;DHT22;7777;52.254;9.618;2023-09-19T13:06:02;19.50;96.10
15355;DHT22;7777;52.254;9.618;2023-09-19T13:08:31;19.50;95.30
15355;DHT22;7777;52.254;9.618;2023-09-19T13:16:20;19.60;96.30
15355;DHT22;7777;52.254;9.618;2023-09-19T13:18:53;19.60;95.80
15355;DHT22;7777;52.254;9.618;2023-09-19T13:21:48;19.70;96.40
15355;DHT22;7777;52.254;9.618;2023-09-19T13:24:21;19.70;96.60
15355;DHT22;7777;52.254;9.618;2023-09-19T13:26:48;19.80;96.60
15355;DHT22;7777;52.254;9.618;2023-09-19T13:29:15;19.90;96.80
15355;DHT22;7777;52.254;9.618;2023-09-19T13:31:50;19.90;96.80
15355;DHT22;7777;52.254;9.618;2023-09-19T13:34:19;20.00;96.70
15355;DHT22;7777;52.254;9.618;2023-09-19T13:36:45;20.10;97.00
15355;DHT22;7777;52.254;9.618;2023-09-19T13:39:15;20.20;97.00
15355;DHT22;7777;52.254;9.618;2023-09-19T13:41:43;20.20;97.20
15355;DHT22;7777;52.254;9.618;2023-09-19T13:44:10;20.30;97.00
15355;DHT22;7777;52.254;9.618;2023-09-19T13:46:36;20.30;96.20
15355;DHT22;7777;52.254;9.618;2023-09-19T13:49:02;20.30;96.10
15355;DHT22;7777;52.254;9.618;2023-09-19T13:51:31;20.40;96.40
15355;DHT22;7777;52.254;9.618;2023-09-19T13:53:57;20.40;96.00
15355;DHT22;7777;52.254;9.618;2023-09-19T13:56:25;20.40;96.00
15355;DHT22;7777;52.254;9.618;2023-09-19T13:58:56;20.40;96.50
15355;DHT22;7777;52.254;9.618;2023-09-19T14:01:22;20.40;95.70
15355;DHT22;7777;52.254;9.618;2023-09-19T14:03:48;20.40;95.90
15355;DHT22;7777;52.254;9.618;2023-09-19T14:06:16;20.40;95.60
15355;DHT22;7777;52.254;9.618;2023-09-19T14:08:43;20.30;95.80
15355;DHT22;7777;52.254;9.618;2023-09-19T14:11:13;20.40;95.90
15355;DHT22;7777;52.254;9.618;2023-09-19T14:13:39;20.40;95.80
15355;DHT22;7777;52.254;9.618;2023-09-19T14:16:08;20.40;95.70
15355;DHT22;7777;52.254;9.618;2023-09-19T14:18:35;20.40;95.70
15355;DHT22;7777;52.254;9.618;2023-09-19T14:21:04;20.40;95.20
15355;DHT22;7777;52.254;9.618;2023-09-19T14:23:39;20.30;94.90
15355;DHT22;7777;52.254;9.618;2023-09-19T14:26:07;20.30;94.80
15355;DHT22;7777;52.254;9.618;2023-09-19T14:28:34;20.30;95.80
15355;DHT22;7777;52.254;9.618;2023-09-19T14:31:05;20.20;94.70
15355;DHT22;7777;52.254;9.618;2023-09-19T14:33:34;20.20;95.00
15355;DHT22;7777;52.254;9.618;2023-09-19T14:36:07;20.20;95.30
15355;DHT22;7777;52.254;9.618;2023-09-19T14:38:35;20.10;95.00
15355;DHT22;7777;52.254;9.618;2023-09-19T14:41:03;20.10;95.50
15355;DHT22;7777;52.254;9.618;2023-09-19T14:43:30;20.10;95.50
15355;DHT22;7777;52.254;9.618;2023-09-19T14:46:02;20.10;95.50
15355;DHT22;7777;52.254;9.618;2023-09-19T14:48:35;20.10;95.40
15355;DHT22;7777;52.254;9.618;2023-09-19T14:51:03;20.00;95.00
15355;DHT22;7777;52.254;9.618;2023-09-19T14:53:29;19.90;94.80
15355;DHT22;7777;52.254;9.618;2023-09-19T14:56:06;20.00;95.10
15355;DHT22;7777;52.254;9.618;2023-09-19T14:58:33;20.00;95.10
15355;DHT22;7777;52.254;9.618;2023-09-19T15:01:12;20.00;95.20
15355;DHT22;7777;52.254;9.618;2023-09-19T15:03:40;19.90;95.40
15355;DHT22;7777;52.254;9.618;2023-09-19T15:06:08;19.90;95.10
15355;DHT22;7777;52.254;9.618;2023-09-19T15:08:38;19.90;95.50
15355;DHT22;7777;52.254;9.618;2023-09-19T15:11:07;19.90;95.80
15355;DHT22;7777;52.254;9.618;2023-09-19T15:13:34;19.90;95.40
15355;DHT22;7777;52.254;9.618;2023-09-19T15:16:05;19.90;95.90
15355;DHT22;7777;52.254;9.618;2023-09-19T15:18:36;20.00;95.40
15355;DHT22;7777;52.254;9.618;2023-09-19T15:21:21;20.00;95.70
15355;DHT22;7777;52.254;9.618;2023-09-19T15:23:46;20.00;95.50
15355;DHT22;7777;52.254;9.618;2023-09-19T15:26:14;20.00;95.60
15355;DHT22;7777;52.254;9.618;2023-09-19T15:28:46;20.10;95.70
15355;DHT22;7777;52.254;9.618;2023-09-19T15:31:12;20.00;95.30
15355;DHT22;7777;52.254;9.618;2023-09-19T15:33:38;20.10;95.10
15355;DHT22;7777;52.254;9.618;2023-09-19T15:36:05;20.10;95.10
15355;DHT22;7777;52.254;9.618;2023-09-19T15:38:32;20.10;95.70
15355;DHT22;7777;52.254;9.618;2023-09-19T15:41:22;20.10;95.70
15355;DHT22;7777;52.254;9.618;2023-09-19T15:43:48;20.20;95.60
15355;DHT22;7777;52.254;9.618;2023-09-19T15:46:14;20.20;95.80
15355;DHT22;7777;52.254;9.618;2023-09-19T15:48:41;20.20;95.70
15355;DHT22;7777;52.254;9.618;2023-09-19T15:51:07;20.20;95.60
15355;DHT22;7777;52.254;9.618;2023-09-19T15:53:43;20.20;95.70
15355;DHT22;7777;52.254;9.618;2023-09-19T15:56:11;20.20;95.70
15355;DHT22;7777;52.254;9.618;2023-09-19T15:58:38;20.10;95.50
15355;DHT22;7777;52.254;9.618;2023-09-19T16:01:06;20.10;95.90
15355;DHT22;7777;52.254;9.618;2023-09-19T16:03:36;20.10;95.70
15355;DHT22;7777;52.254;9.618;2023-09-19T16:06:08;20.10;95.70
15355;DHT22;7777;52.254;9.618;2023-09-19T16:08:38;20.10;96.00
15355;DHT22;7777;52.254;9.618;2023-09-19T16:11:05;20.00;95.50
15355;DHT22;7777;52.254;9.618;2023-09-19T16:13:31;20.00;95.60
15355;DHT22;7777;52.254;9.618;2023-09-19T16:15:57;20.00;95.90
15355;DHT22;7777;52.254;9.618;2023-09-19T16:18:23;20.00;95.90
15355;DHT22;7777;52.254;9.618;2023-09-19T16:20:49;20.00;96.00
15355;DHT22;7777;52.254;9.618;2023-09-19T16:23:15;20.00;96.00
15355;DHT22;7777;52.254;9.618;2023-09-19T16:25:41;19.90;95.90
15355;DHT22;7777;52.254;9.618;2023-09-19T16:28:08;20.00;96.20
15355;DHT22;7777;52.254;9.618;2023-09-19T16:30:34;20.00;96.00
15355;DHT22;7777;52.254;9.618;2023-09-19T16:33:00;19.90;95.90
15355;DHT22;7777;52.254;9.618;2023-09-19T16:35:25;19.90;96.00
15355;DHT22;7777;52.254;9.618;2023-09-19T16:37:51;19.90;95.60
15355;DHT22;7777;52.254;9.618;2023-09-19T16:40:17;19.80;95.90
15355;DHT22;7777;52.254;9.618;2023-09-19T16:42:43;19.80;95.80
15355;DHT22;7777;52.254;9.618;2023-09-19T16:45:09;19.80;95.90
15355;DHT22;7777;52.254;9.618;2023-09-19T16:47:37;19.80;95.80
15355;DHT22;7777;52.254;9.618;2023-09-19T16:50:03;19.70;95.70
15355;DHT22;7777;52.254;9.618;2023-09-19T16:52:31;19.70;95.90
15355;DHT22;7777;52.254;9.618;2023-09-19T16:54:57;19.70;95.80
15355;DHT22;7777;52.254;9.618;2023-09-19T16:57:22;19.70;95.90
15355;DHT22;7777;52.254;9.618;2023-09-19T16:59:48;19.70;95.90